Grobbendonk, Belgium
Current Conditions -  °F | °C
As of 6:20 PM on Saturday 25 Oct 2014 (Local Time) from EBAW Reporting Station
Broken Clouds Broken Clouds  
Wind Chill: 14°   Ceiling: 4200
Heat Index: 14°   Visibility: 6mi
Dew Point:   Wind: 3mph
Humidity: 59%   Direction: 260°W
Pressure: 30.15"   Gusts: NA
Location:  51.19°N, 4.74°E
Report Text: EBAW 251620Z 26003KT 9999 FEW031 BKN042 14/06 Q1021 NOSIG
Loading
Personal Weather Stations






























Interactive Weather Map
Tropical Storm Tracking
New forecast layout! Learn more

10-Day Weather Forecast

Advertisements
Track Severe Weather on mobile